sensor_id;sensor_type;location;lat;lon;timestamp;temperature;humidity
16249;DHT22;8232;51.678;6.610;2022-08-14T00:01:58;22.70;99.90
16249;DHT22;8232;51.678;6.610;2022-08-14T00:04:26;22.80;99.90
16249;DHT22;8232;51.678;6.610;2022-08-14T00:06:52;22.70;99.90
16249;DHT22;8232;51.678;6.610;2022-08-14T00:09:19;22.70;99.90
16249;DHT22;8232;51.678;6.610;2022-08-14T00:11:46;22.60;99.90
16249;DHT22;8232;51.678;6.610;2022-08-14T00:14:14;22.60;99.90
16249;DHT22;8232;51.678;6.610;2022-08-14T00:16:41;22.50;99.90
16249;DHT22;8232;51.678;6.610;2022-08-14T00:19:08;22.60;99.90
16249;DHT22;8232;51.678;6.610;2022-08-14T00:21:35;22.60;99.90
16249;DHT22;8232;51.678;6.610;2022-08-14T00:24:03;22.50;99.90
16249;DHT22;8232;51.678;6.610;2022-08-14T00:26:30;22.50;99.90
16249;DHT22;8232;51.678;6.610;2022-08-14T00:28:57;22.50;99.90
16249;DHT22;8232;51.678;6.610;2022-08-14T00:31:25;22.40;99.90
16249;DHT22;8232;51.678;6.610;2022-08-14T00:33:52;22.40;99.90
16249;DHT22;8232;51.678;6.610;2022-08-14T00:36:20;22.40;99.90
16249;DHT22;8232;51.678;6.610;2022-08-14T00:38:47;22.30;99.90
16249;DHT22;8232;51.678;6.610;2022-08-14T00:41:14;22.20;99.90
16249;DHT22;8232;51.678;6.610;2022-08-14T00:43:41;22.20;99.90
16249;DHT22;8232;51.678;6.610;2022-08-14T00:46:11;22.20;99.90
16249;DHT22;8232;51.678;6.610;2022-08-14T00:48:40;22.10;99.90
16249;DHT22;8232;51.678;6.610;2022-08-14T00:51:08;22.10;99.90
16249;DHT22;8232;51.678;6.610;2022-08-14T00:53:37;21.80;99.90
16249;DHT22;8232;51.678;6.610;2022-08-14T00:56:05;21.80;99.90
16249;DHT22;8232;51.678;6.610;2022-08-14T00:58:32;21.80;99.90
16249;DHT22;8232;51.678;6.610;2022-08-14T01:01:02;21.70;99.90
16249;DHT22;8232;51.678;6.610;2022-08-14T01:03:30;21.80;99.90
16249;DHT22;8232;51.678;6.610;2022-08-14T01:06:06;21.70;99.90
16249;DHT22;8232;51.678;6.610;2022-08-14T01:08:35;21.70;99.90
16249;DHT22;8232;51.678;6.610;2022-08-14T01:11:04;21.60;99.90
16249;DHT22;8232;51.678;6.610;2022-08-14T01:13:34;21.70;99.90
16249;DHT22;8232;51.678;6.610;2022-08-14T01:16:04;21.70;99.90
16249;DHT22;8232;51.678;6.610;2022-08-14T01:18:32;21.70;99.90
16249;DHT22;8232;51.678;6.610;2022-08-14T01:21:21;21.60;99.90
16249;DHT22;8232;51.678;6.610;2022-08-14T01:23:50;21.60;99.90
16249;DHT22;8232;51.678;6.610;2022-08-14T01:26:19;21.50;99.90
16249;DHT22;8232;51.678;6.610;2022-08-14T01:28:48;21.60;99.90
16249;DHT22;8232;51.678;6.610;2022-08-14T01:31:21;21.50;99.90
16249;DHT22;8232;51.678;6.610;2022-08-14T01:33:50;21.40;99.90
16249;DHT22;8232;51.678;6.610;2022-08-14T01:36:21;21.40;99.90
16249;DHT22;8232;51.678;6.610;2022-08-14T01:38:49;21.40;99.90
16249;DHT22;8232;51.678;6.610;2022-08-14T01:41:20;21.40;99.90
16249;DHT22;8232;51.678;6.610;2022-08-14T01:43:49;21.30;99.90
16249;DHT22;8232;51.678;6.610;2022-08-14T01:46:17;21.30;99.90
16249;DHT22;8232;51.678;6.610;2022-08-14T01:48:44;21.40;99.90
16249;DHT22;8232;51.678;6.610;2022-08-14T01:51:14;21.30;99.90
16249;DHT22;8232;51.678;6.610;2022-08-14T01:53:45;21.40;99.90
16249;DHT22;8232;51.678;6.610;2022-08-14T01:56:16;21.20;99.90
16249;DHT22;8232;51.678;6.610;2022-08-14T01:58:44;21.20;99.90
16249;DHT22;8232;51.678;6.610;2022-08-14T02:01:13;21.10;99.90
16249;DHT22;8232;51.678;6.610;2022-08-14T02:03:41;21.00;99.90
16249;DHT22;8232;51.678;6.610;2022-08-14T02:06:09;21.00;99.90
16249;DHT22;8232;51.678;6.610;2022-08-14T02:08:37;21.00;99.90
16249;DHT22;8232;51.678;6.610;2022-08-14T02:11:09;21.00;99.90
16249;DHT22;8232;51.678;6.610;2022-08-14T02:13:44;21.00;99.90
16249;DHT22;8232;51.678;6.610;2022-08-14T02:16:11;21.00;99.90
16249;DHT22;8232;51.678;6.610;2022-08-14T02:18:41;21.00;99.90
16249;DHT22;8232;51.678;6.610;2022-08-14T02:21:09;20.90;99.90
16249;DHT22;8232;51.678;6.610;2022-08-14T02:23:37;21.00;99.90
16249;DHT22;8232;51.678;6.610;2022-08-14T02:26:16;20.90;99.90
16249;DHT22;8232;51.678;6.610;2022-08-14T02:28:43;20.90;99.90
16249;DHT22;8232;51.678;6.610;2022-08-14T02:31:11;20.80;99.90
16249;DHT22;8232;51.678;6.610;2022-08-14T02:33:38;20.80;99.90
16249;DHT22;8232;51.678;6.610;2022-08-14T02:36:07;20.80;99.90
16249;DHT22;8232;51.678;6.610;2022-08-14T02:38:34;20.80;99.90
16249;DHT22;8232;51.678;6.610;2022-08-14T02:41:02;20.70;99.90
16249;DHT22;8232;51.678;6.610;2022-08-14T02:43:31;20.70;99.90
16249;DHT22;8232;51.678;6.610;2022-08-14T02:45:58;20.70;99.90
16249;DHT22;8232;51.678;6.610;2022-08-14T02:48:25;20.70;99.90
16249;DHT22;8232;51.678;6.610;2022-08-14T02:50:56;20.60;99.90
16249;DHT22;8232;51.678;6.610;2022-08-14T02:53:23;20.60;99.90
16249;DHT22;8232;51.678;6.610;2022-08-14T02:55:50;20.60;99.90
16249;DHT22;8232;51.678;6.610;2022-08-14T02:58:18;20.60;99.90
16249;DHT22;8232;51.678;6.610;2022-08-14T03:00:49;20.60;99.90
16249;DHT22;8232;51.678;6.610;2022-08-14T03:03:16;20.60;99.90
16249;DHT22;8232;51.678;6.610;2022-08-14T03:05:47;20.60;99.90
16249;DHT22;8232;51.678;6.610;2022-08-14T03:08:16;20.50;99.90
16249;DHT22;8232;51.678;6.610;2022-08-14T03:10:43;20.60;99.90
16249;DHT22;8232;51.678;6.610;2022-08-14T03:13:10;20.50;99.90
16249;DHT22;8232;51.678;6.610;2022-08-14T03:15:37;20.40;99.90
16249;DHT22;8232;51.678;6.610;2022-08-14T03:18:10;20.50;99.90
16249;DHT22;8232;51.678;6.610;2022-08-14T03:20:38;20.40;99.90
16249;DHT22;8232;51.678;6.610;2022-08-14T03:23:05;20.40;99.90
16249;DHT22;8232;51.678;6.610;2022-08-14T03:25:32;20.30;99.90
16249;DHT22;8232;51.678;6.610;2022-08-14T03:28:01;20.30;99.90
16249;DHT22;8232;51.678;6.610;2022-08-14T03:30:30;20.30;99.90
16249;DHT22;8232;51.678;6.610;2022-08-14T03:32:57;20.20;99.90
16249;DHT22;8232;51.678;6.610;2022-08-14T03:35:26;20.10;99.90
16249;DHT22;8232;51.678;6.610;2022-08-14T03:37:54;20.20;99.90
16249;DHT22;8232;51.678;6.610;2022-08-14T03:40:21;20.10;99.90
16249;DHT22;8232;51.678;6.610;2022-08-14T03:42:50;20.10;99.90
16249;DHT22;8232;51.678;6.610;2022-08-14T03:45:17;20.10;99.90
16249;DHT22;8232;51.678;6.610;2022-08-14T03:47:43;20.00;99.90
16249;DHT22;8232;51.678;6.610;2022-08-14T03:50:11;19.90;99.90
16249;DHT22;8232;51.678;6.610;2022-08-14T03:52:40;20.00;99.90
16249;DHT22;8232;51.678;6.610;2022-08-14T03:55:08;19.90;99.90
16249;DHT22;8232;51.678;6.610;2022-08-14T03:57:36;19.90;99.90
16249;DHT22;8232;51.678;6.610;2022-08-14T04:00:07;19.90;99.90
16249;DHT22;8232;51.678;6.610;2022-08-14T04:02:35;19.80;99.90
16249;DHT22;8232;51.678;6.610;2022-08-14T04:05:03;19.80;99.90
16249;DHT22;8232;51.678;6.610;2022-08-14T04:07:29;19.60;99.90
16249;DHT22;8232;51.678;6.610;2022-08-14T04:09:59;19.80;99.90
16249;DHT22;8232;51.678;6.610;2022-08-14T04:12:26;19.80;99.90
16249;DHT22;8232;51.678;6.610;2022-08-14T04:14:53;19.80;99.90
16249;DHT22;8232;51.678;6.610;2022-08-14T04:17:19;19.70;99.90
16249;DHT22;8232;51.678;6.610;2022-08-14T04:19:46;19.60;99.90
16249;DHT22;8232;51.678;6.610;2022-08-14T04:22:13;19.60;99.90
16249;DHT22;8232;51.678;6.610;2022-08-14T04:24:40;19.70;99.90
16249;DHT22;8232;51.678;6.610;2022-08-14T04:27:10;19.60;99.90
16249;DHT22;8232;51.678;6.610;2022-08-14T04:29:38;19.60;99.90
16249;DHT22;8232;51.678;6.610;2022-08-14T04:32:07;19.60;99.90
16249;DHT22;8232;51.678;6.610;2022-08-14T04:34:35;19.50;99.90
16249;DHT22;8232;51.678;6.610;2022-08-14T04:37:06;19.60;99.90
16249;DHT22;8232;51.678;6.610;2022-08-14T04:39:50;19.60;99.90
16249;DHT22;8232;51.678;6.610;2022-08-14T04:42:36;19.60;99.90
16249;DHT22;8232;51.678;6.610;2022-08-14T04:45:22;19.50;99.90
16249;DHT22;8232;51.678;6.610;2022-08-14T04:47:50;19.50;99.90
16249;DHT22;8232;51.678;6.610;2022-08-14T04:50:33;19.40;99.90
16249;DHT22;8232;51.678;6.610;2022-08-14T04:53:00;19.40;99.90
16249;DHT22;8232;51.678;6.610;2022-08-14T04:55:27;19.50;99.90
16249;DHT22;8232;51.678;6.610;2022-08-14T04:57:56;19.60;99.90
16249;DHT22;8232;51.678;6.610;2022-08-14T05:00:24;19.60;99.90
16249;DHT22;8232;51.678;6.610;2022-08-14T05:02:51;19.40;99.90
16249;DHT22;8232;51.678;6.610;2022-08-14T05:05:21;19.40;99.90
16249;DHT22;8232;51.678;6.610;2022-08-14T05:07:49;19.50;99.90
16249;DHT22;8232;51.678;6.610;2022-08-14T05:10:16;19.50;99.90
16249;DHT22;8232;51.678;6.610;2022-08-14T05:12:50;19.60;99.90
16249;DHT22;8232;51.678;6.610;2022-08-14T05:15:19;19.70;99.90
16249;DHT22;8232;51.678;6.610;2022-08-14T05:17:46;19.80;99.90
16249;DHT22;8232;51.678;6.610;2022-08-14T05:20:14;19.80;99.90
16249;DHT22;8232;51.678;6.610;2022-08-14T05:22:41;19.90;99.90
16249;DHT22;8232;51.678;6.610;2022-08-14T05:25:10;19.90;99.90
16249;DHT22;8232;51.678;6.610;2022-08-14T05:27:37;20.10;99.90
16249;DHT22;8232;51.678;6.610;2022-08-14T05:30:05;20.00;99.90
16249;DHT22;8232;51.678;6.610;2022-08-14T05:32:33;20.10;99.90
16249;DHT22;8232;51.678;6.610;2022-08-14T05:35:00;20.10;99.90
16249;DHT22;8232;51.678;6.610;2022-08-14T05:37:27;20.30;99.90
16249;DHT22;8232;51.678;6.610;2022-08-14T05:39:55;20.40;99.90
16249;DHT22;8232;51.678;6.610;2022-08-14T05:42:22;20.40;99.90
16249;DHT22;8232;51.678;6.610;2022-08-14T05:44:49;20.50;99.90
16249;DHT22;8232;51.678;6.610;2022-08-14T05:47:16;20.60;99.90
16249;DHT22;8232;51.678;6.610;2022-08-14T05:49:44;20.80;99.90
16249;DHT22;8232;51.678;6.610;2022-08-14T05:52:12;21.10;99.90
16249;DHT22;8232;51.678;6.610;2022-08-14T05:54:39;21.30;99.90
16249;DHT22;8232;51.678;6.610;2022-08-14T05:57:06;21.40;99.90
16249;DHT22;8232;51.678;6.610;2022-08-14T05:59:34;21.90;99.90
16249;DHT22;8232;51.678;6.610;2022-08-14T06:02:01;22.00;99.90
16249;DHT22;8232;51.678;6.610;2022-08-14T06:04:28;22.10;99.90
16249;DHT22;8232;51.678;6.610;2022-08-14T06:06:56;22.40;99.90
16249;DHT22;8232;51.678;6.610;2022-08-14T06:09:23;22.60;99.90
16249;DHT22;8232;51.678;6.610;2022-08-14T06:11:49;22.70;99.90
16249;DHT22;8232;51.678;6.610;2022-08-14T06:14:16;22.90;99.90
16249;DHT22;8232;51.678;6.610;2022-08-14T06:16:44;23.30;99.90
16249;DHT22;8232;51.678;6.610;2022-08-14T06:19:12;23.20;99.90
16249;DHT22;8232;51.678;6.610;2022-08-14T06:21:39;23.60;99.90
16249;DHT22;8232;51.678;6.610;2022-08-14T06:24:07;23.80;99.90
16249;DHT22;8232;51.678;6.610;2022-08-14T06:26:34;24.00;99.90
16249;DHT22;8232;51.678;6.610;2022-08-14T06:29:01;24.20;99.90
16249;DHT22;8232;51.678;6.610;2022-08-14T06:31:28;24.50;99.90
16249;DHT22;8232;51.678;6.610;2022-08-14T06:33:55;24.50;99.90
16249;DHT22;8232;51.678;6.610;2022-08-14T06:36:22;24.70;99.90
16249;DHT22;8232;51.678;6.610;2022-08-14T06:38:50;24.90;99.90
16249;DHT22;8232;51.678;6.610;2022-08-14T06:41:18;25.10;99.90
16249;DHT22;8232;51.678;6.610;2022-08-14T06:43:45;25.20;99.90
16249;DHT22;8232;51.678;6.610;2022-08-14T06:46:12;25.50;99.90
16249;DHT22;8232;51.678;6.610;2022-08-14T06:48:39;25.10;99.90
16249;DHT22;8232;51.678;6.610;2022-08-14T06:51:06;25.30;99.90
16249;DHT22;8232;51.678;6.610;2022-08-14T06:53:33;25.70;99.90
16249;DHT22;8232;51.678;6.610;2022-08-14T06:56:00;26.10;99.90
16249;DHT22;8232;51.678;6.610;2022-08-14T06:58:28;26.40;99.90
16249;DHT22;8232;51.678;6.610;2022-08-14T07:00:55;26.60;99.90
16249;DHT22;8232;51.678;6.610;2022-08-14T07:03:40;26.50;99.90
16249;DHT22;8232;51.678;6.610;2022-08-14T07:06:24;26.40;99.90
16249;DHT22;8232;51.678;6.610;2022-08-14T07:08:51;27.00;99.90
16249;DHT22;8232;51.678;6.610;2022-08-14T07:11:18;27.10;99.90
16249;DHT22;8232;51.678;6.610;2022-08-14T07:13:46;27.00;99.90
16249;DHT22;8232;51.678;6.610;2022-08-14T07:16:13;27.30;99.90
16249;DHT22;8232;51.678;6.610;2022-08-14T07:18:40;27.20;99.90
16249;DHT22;8232;51.678;6.610;2022-08-14T07:21:08;27.30;99.90
16249;DHT22;8232;51.678;6.610;2022-08-14T07:23:35;27.50;99.90
16249;DHT22;8232;51.678;6.610;2022-08-14T07:26:04;28.00;99.90
16249;DHT22;8232;51.678;6.610;2022-08-14T07:28:32;28.00;99.90
16249;DHT22;8232;51.678;6.610;2022-08-14T07:31:04;27.60;99.90
16249;DHT22;8232;51.678;6.610;2022-08-14T07:33:32;27.60;99.90
16249;DHT22;8232;51.678;6.610;2022-08-14T07:36:02;28.20;99.90
16249;DHT22;8232;51.678;6.610;2022-08-14T07:38:30;28.60;99.90
16249;DHT22;8232;51.678;6.610;2022-08-14T07:40:56;28.70;99.90
16249;DHT22;8232;51.678;6.610;2022-08-14T07:43:24;28.70;99.90
16249;DHT22;8232;51.678;6.610;2022-08-14T07:45:51;28.70;99.90
16249;DHT22;8232;51.678;6.610;2022-08-14T07:48:19;28.80;99.90
16249;DHT22;8232;51.678;6.610;2022-08-14T07:50:46;29.70;99.90
16249;DHT22;8232;51.678;6.610;2022-08-14T07:53:15;30.20;99.90
16249;DHT22;8232;51.678;6.610;2022-08-14T07:55:42;30.50;99.90
16249;DHT22;8232;51.678;6.610;2022-08-14T07:58:10;30.30;99.90
16249;DHT22;8232;51.678;6.610;2022-08-14T08:00:38;30.40;99.90
16249;DHT22;8232;51.678;6.610;2022-08-14T08:03:06;30.20;99.90
16249;DHT22;8232;51.678;6.610;2022-08-14T08:05:36;29.80;99.90
16249;DHT22;8232;51.678;6.610;2022-08-14T08:08:05;30.60;99.90
16249;DHT22;8232;51.678;6.610;2022-08-14T08:10:32;31.20;99.90
16249;DHT22;8232;51.678;6.610;2022-08-14T08:13:02;31.10;99.90
16249;DHT22;8232;51.678;6.610;2022-08-14T08:15:31;31.00;99.90
16249;DHT22;8232;51.678;6.610;2022-08-14T08:17:59;30.70;99.90
16249;DHT22;8232;51.678;6.610;2022-08-14T08:20:31;31.20;99.90
16249;DHT22;8232;51.678;6.610;2022-08-14T08:23:00;31.00;99.90
16249;DHT22;8232;51.678;6.610;2022-08-14T08:25:29;31.70;99.90
16249;DHT22;8232;51.678;6.610;2022-08-14T08:27:58;32.50;99.90
16249;DHT22;8232;51.678;6.610;2022-08-14T08:30:26;32.00;99.90
16249;DHT22;8232;51.678;6.610;2022-08-14T08:32:55;32.00;99.90
16249;DHT22;8232;51.678;6.610;2022-08-14T08:35:24;32.60;99.90
16249;DHT22;8232;51.678;6.610;2022-08-14T08:37:58;32.20;99.90
16249;DHT22;8232;51.678;6.610;2022-08-14T08:40:29;32.20;99.90
16249;DHT22;8232;51.678;6.610;2022-08-14T08:43:00;33.00;99.90
16249;DHT22;8232;51.678;6.610;2022-08-14T08:45:27;33.00;99.90
16249;DHT22;8232;51.678;6.610;2022-08-14T08:47:54;33.00;99.90
16249;DHT22;8232;51.678;6.610;2022-08-14T08:50:22;33.30;99.90
16249;DHT22;8232;51.678;6.610;2022-08-14T08:52:51;33.70;99.90
16249;DHT22;8232;51.678;6.610;2022-08-14T08:55:28;33.50;99.90
16249;DHT22;8232;51.678;6.610;2022-08-14T08:57:57;32.90;99.90
16249;DHT22;8232;51.678;6.610;2022-08-14T09:00:24;33.30;99.90
16249;DHT22;8232;51.678;6.610;2022-08-14T09:02:54;34.00;99.90
16249;DHT22;8232;51.678;6.610;2022-08-14T09:05:22;34.00;99.90
16249;DHT22;8232;51.678;6.610;2022-08-14T09:07:50;34.70;99.90
16249;DHT22;8232;51.678;6.610;2022-08-14T09:10:17;33.50;99.90
16249;DHT22;8232;51.678;6.610;2022-08-14T09:12:46;34.80;99.90
16249;DHT22;8232;51.678;6.610;2022-08-14T09:15:13;34.20;99.90
16249;DHT22;8232;51.678;6.610;2022-08-14T09:17:40;33.70;99.90
16249;DHT22;8232;51.678;6.610;2022-08-14T09:20:08;34.10;99.90
16249;DHT22;8232;51.678;6.610;2022-08-14T09:22:35;34.00;99.90
16249;DHT22;8232;51.678;6.610;2022-08-14T09:25:04;35.00;99.90
16249;DHT22;8232;51.678;6.610;2022-08-14T09:27:31;35.30;99.90
16249;DHT22;8232;51.678;6.610;2022-08-14T09:29:59;36.10;99.90
16249;DHT22;8232;51.678;6.610;2022-08-14T09:32:31;35.70;99.90
16249;DHT22;8232;51.678;6.610;2022-08-14T09:35:08;34.70;99.90
16249;DHT22;8232;51.678;6.610;2022-08-14T09:37:47;36.00;99.90
16249;DHT22;8232;51.678;6.610;2022-08-14T09:40:25;35.70;99.90
16249;DHT22;8232;51.678;6.610;2022-08-14T09:43:03;35.80;99.90
16249;DHT22;8232;51.678;6.610;2022-08-14T09:45:44;36.10;99.90
16249;DHT22;8232;51.678;6.610;2022-08-14T09:48:14;36.40;99.90
16249;DHT22;8232;51.678;6.610;2022-08-14T09:50:45;36.40;99.90
16249;DHT22;8232;51.678;6.610;2022-08-14T09:53:15;35.90;99.90
16249;DHT22;8232;51.678;6.610;2022-08-14T09:55:42;37.40;99.90
16249;DHT22;8232;51.678;6.610;2022-08-14T09:58:12;36.80;99.90
16249;DHT22;8232;51.678;6.610;2022-08-14T10:00:45;37.00;99.90
16249;DHT22;8232;51.678;6.610;2022-08-14T10:03:24;37.10;99.90
16249;DHT22;8232;51.678;6.610;2022-08-14T10:06:04;37.40;99.90
16249;DHT22;8232;51.678;6.610;2022-08-14T10:08:40;36.60;99.90
16249;DHT22;8232;51.678;6.610;2022-08-14T10:11:13;37.30;99.90
16249;DHT22;8232;51.678;6.610;2022-08-14T10:13:42;37.60;99.90
16249;DHT22;8232;51.678;6.610;2022-08-14T10:16:10;38.30;99.90
16249;DHT22;8232;51.678;6.610;2022-08-14T10:18:39;38.40;99.90
16249;DHT22;8232;51.678;6.610;2022-08-14T10:21:09;38.40;99.90
16249;DHT22;8232;51.678;6.610;2022-08-14T10:23:44;38.00;99.90
16249;DHT22;8232;51.678;6.610;2022-08-14T10:26:16;37.10;99.90
16249;DHT22;8232;51.678;6.610;2022-08-14T10:28:45;37.00;99.90
16249;DHT22;8232;51.678;6.610;2022-08-14T10:31:19;37.10;99.90
16249;DHT22;8232;51.678;6.610;2022-08-14T10:34:05;38.00;99.90
16249;DHT22;8232;51.678;6.610;2022-08-14T10:36:34;35.90;99.90
16249;DHT22;8232;51.678;6.610;2022-08-14T10:39:04;37.40;99.90
16249;DHT22;8232;51.678;6.610;2022-08-14T10:41:37;38.80;99.90
16249;DHT22;8232;51.678;6.610;2022-08-14T10:44:07;37.50;99.90
16249;DHT22;8232;51.678;6.610;2022-08-14T10:46:43;38.00;99.90
16249;DHT22;8232;51.678;6.610;2022-08-14T10:49:20;39.80;99.90
16249;DHT22;8232;51.678;6.610;2022-08-14T10:51:58;39.80;99.90
16249;DHT22;8232;51.678;6.610;2022-08-14T10:54:30;39.60;99.90
16249;DHT22;8232;51.678;6.610;2022-08-14T10:56:57;38.10;99.90
16249;DHT22;8232;51.678;6.610;2022-08-14T10:59:24;38.70;99.90
16249;DHT22;8232;51.678;6.610;2022-08-14T11:01:52;38.80;99.90
16249;DHT22;8232;51.678;6.610;2022-08-14T11:04:21;39.50;99.90
16249;DHT22;8232;51.678;6.610;2022-08-14T11:06:53;40.00;99.90
16249;DHT22;8232;51.678;6.610;2022-08-14T11:09:21;40.00;99.90
16249;DHT22;8232;51.678;6.610;2022-08-14T11:11:54;37.10;99.90
16249;DHT22;8232;51.678;6.610;2022-08-14T11:14:21;40.10;99.90
16249;DHT22;8232;51.678;6.610;2022-08-14T11:16:48;37.30;99.90
16249;DHT22;8232;51.678;6.610;2022-08-14T11:19:18;39.60;99.90
16249;DHT22;8232;51.678;6.610;2022-08-14T11:21:48;39.90;99.90
16249;DHT22;8232;51.678;6.610;2022-08-14T11:24:17;39.60;99.90
16249;DHT22;8232;51.678;6.610;2022-08-14T11:26:45;39.50;99.90
16249;DHT22;8232;51.678;6.610;2022-08-14T11:29:13;40.20;99.90
16249;DHT22;8232;51.678;6.610;2022-08-14T11:31:39;38.40;99.90
16249;DHT22;8232;51.678;6.610;2022-08-14T11:34:07;38.60;99.90
16249;DHT22;8232;51.678;6.610;2022-08-14T11:36:36;38.90;99.90
16249;DHT22;8232;51.678;6.610;2022-08-14T11:39:03;41.00;99.90
16249;DHT22;8232;51.678;6.610;2022-08-14T11:41:33;39.40;99.90
16249;DHT22;8232;51.678;6.610;2022-08-14T11:44:00;39.10;99.90
16249;DHT22;8232;51.678;6.610;2022-08-14T11:46:27;40.50;99.90
16249;DHT22;8232;51.678;6.610;2022-08-14T11:48:54;41.10;99.90
16249;DHT22;8232;51.678;6.610;2022-08-14T11:51:23;40.30;99.90
16249;DHT22;8232;51.678;6.610;2022-08-14T11:53:53;40.90;99.90
16249;DHT22;8232;51.678;6.610;2022-08-14T11:56:21;40.20;99.90
16249;DHT22;8232;51.678;6.610;2022-08-14T11:58:52;40.90;99.90
16249;DHT22;8232;51.678;6.610;2022-08-14T12:01:27;37.30;99.90
16249;DHT22;8232;51.678;6.610;2022-08-14T12:04:07;37.90;99.90
16249;DHT22;8232;51.678;6.610;2022-08-14T12:06:43;39.30;99.90
16249;DHT22;8232;51.678;6.610;2022-08-14T12:09:12;39.90;99.90
16249;DHT22;8232;51.678;6.610;2022-08-14T12:11:40;39.70;99.90
16249;DHT22;8232;51.678;6.610;2022-08-14T12:14:07;37.90;99.90
16249;DHT22;8232;51.678;6.610;2022-08-14T12:16:34;39.20;99.90
16249;DHT22;8232;51.678;6.610;2022-08-14T12:19:01;40.80;99.90
16249;DHT22;8232;51.678;6.610;2022-08-14T12:21:30;41.20;99.90
16249;DHT22;8232;51.678;6.610;2022-08-14T12:24:03;41.20;99.90
16249;DHT22;8232;51.678;6.610;2022-08-14T12:26:32;39.80;99.90
16249;DHT22;8232;51.678;6.610;2022-08-14T12:29:05;37.70;99.90
16249;DHT22;8232;51.678;6.610;2022-08-14T12:31:34;35.30;99.90
16249;DHT22;8232;51.678;6.610;2022-08-14T12:34:02;35.40;99.90
16249;DHT22;8232;51.678;6.610;2022-08-14T12:36:30;33.40;99.90
16249;DHT22;8232;51.678;6.610;2022-08-14T12:38:58;32.80;99.90
16249;DHT22;8232;51.678;6.610;2022-08-14T12:41:27;36.60;99.90
16249;DHT22;8232;51.678;6.610;2022-08-14T12:43:59;38.00;99.90
16249;DHT22;8232;51.678;6.610;2022-08-14T12:46:27;38.00;99.90
16249;DHT22;8232;51.678;6.610;2022-08-14T12:48:56;37.50;99.90
16249;DHT22;8232;51.678;6.610;2022-08-14T12:51:25;35.20;99.90
16249;DHT22;8232;51.678;6.610;2022-08-14T12:53:52;34.40;99.90
16249;DHT22;8232;51.678;6.610;2022-08-14T12:56:20;32.60;99.90
16249;DHT22;8232;51.678;6.610;2022-08-14T12:58:53;32.80;99.90
16249;DHT22;8232;51.678;6.610;2022-08-14T13:01:24;34.90;99.90
16249;DHT22;8232;51.678;6.610;2022-08-14T13:04:03;36.00;99.90
16249;DHT22;8232;51.678;6.610;2022-08-14T13:06:33;37.50;99.90
16249;DHT22;8232;51.678;6.610;2022-08-14T13:09:00;37.20;99.90
16249;DHT22;8232;51.678;6.610;2022-08-14T13:11:36;34.50;99.90
16249;DHT22;8232;51.678;6.610;2022-08-14T13:14:04;33.50;99.90
16249;DHT22;8232;51.678;6.610;2022-08-14T13:16:33;32.90;99.90
16249;DHT22;8232;51.678;6.610;2022-08-14T13:19:01;32.60;99.90
16249;DHT22;8232;51.678;6.610;2022-08-14T13:21:28;32.40;99.90
16249;DHT22;8232;51.678;6.610;2022-08-14T13:23:56;32.40;99.90
16249;DHT22;8232;51.678;6.610;2022-08-14T13:26:25;31.90;99.90
16249;DHT22;8232;51.678;6.610;2022-08-14T13:28:52;31.80;99.90
16249;DHT22;8232;51.678;6.610;2022-08-14T13:31:22;31.80;99.90
16249;DHT22;8232;51.678;6.610;2022-08-14T13:33:51;32.00;99.90
16249;DHT22;8232;51.678;6.610;2022-08-14T13:36:18;31.50;99.90
16249;DHT22;8232;51.678;6.610;2022-08-14T13:38:47;31.70;99.90
16249;DHT22;8232;51.678;6.610;2022-08-14T13:41:15;31.60;99.90
16249;DHT22;8232;51.678;6.610;2022-08-14T13:43:48;31.80;99.90
16249;DHT22;8232;51.678;6.610;2022-08-14T13:46:15;31.90;99.90
16249;DHT22;8232;51.678;6.610;2022-08-14T13:48:43;31.90;99.90
16249;DHT22;8232;51.678;6.610;2022-08-14T13:51:15;32.00;99.90
16249;DHT22;8232;51.678;6.610;2022-08-14T13:53:44;32.00;99.90
16249;DHT22;8232;51.678;6.610;2022-08-14T13:56:13;32.00;99.90
16249;DHT22;8232;51.678;6.610;2022-08-14T13:58:42;32.00;99.90
16249;DHT22;8232;51.678;6.610;2022-08-14T14:01:10;31.90;99.90
16249;DHT22;8232;51.678;6.610;2022-08-14T14:03:38;31.70;99.90
16249;DHT22;8232;51.678;6.610;2022-08-14T14:06:07;31.60;99.90
16249;DHT22;8232;51.678;6.610;2022-08-14T14:08:47;31.90;99.90
16249;DHT22;8232;51.678;6.610;2022-08-14T14:11:15;32.10;99.90
16249;DHT22;8232;51.678;6.610;2022-08-14T14:13:44;31.80;99.90
16249;DHT22;8232;51.678;6.610;2022-08-14T14:16:13;31.90;99.90
16249;DHT22;8232;51.678;6.610;2022-08-14T14:18:42;31.90;99.90
16249;DHT22;8232;51.678;6.610;2022-08-14T14:21:16;32.00;99.90
16249;DHT22;8232;51.678;6.610;2022-08-14T14:23:44;31.90;99.90
16249;DHT22;8232;51.678;6.610;2022-08-14T14:26:12;31.40;99.90
16249;DHT22;8232;51.678;6.610;2022-08-14T14:28:42;31.70;99.90
16249;DHT22;8232;51.678;6.610;2022-08-14T14:31:10;32.10;99.90
16249;DHT22;8232;51.678;6.610;2022-08-14T14:33:41;32.00;99.90
16249;DHT22;8232;51.678;6.610;2022-08-14T14:36:10;32.00;99.90
16249;DHT22;8232;51.678;6.610;2022-08-14T14:38:40;32.10;99.90
16249;DHT22;8232;51.678;6.610;2022-08-14T14:41:11;32.30;99.90
16249;DHT22;8232;51.678;6.610;2022-08-14T14:43:43;32.40;99.90
16249;DHT22;8232;51.678;6.610;2022-08-14T14:46:16;32.30;99.90
16249;DHT22;8232;51.678;6.610;2022-08-14T14:48:44;32.10;99.90
16249;DHT22;8232;51.678;6.610;2022-08-14T14:51:12;32.20;99.90
16249;DHT22;8232;51.678;6.610;2022-08-14T14:53:40;32.50;99.90
16249;DHT22;8232;51.678;6.610;2022-08-14T14:56:08;33.00;99.90
16249;DHT22;8232;51.678;6.610;2022-08-14T14:58:37;32.30;99.90
16249;DHT22;8232;51.678;6.610;2022-08-14T15:01:06;32.40;99.90
16249;DHT22;8232;51.678;6.610;2022-08-14T15:03:34;32.70;99.90
16249;DHT22;8232;51.678;6.610;2022-08-14T15:06:01;32.50;99.90
16249;DHT22;8232;51.678;6.610;2022-08-14T15:08:29;32.70;99.90
16249;DHT22;8232;51.678;6.610;2022-08-14T15:10:56;32.50;99.90
16249;DHT22;8232;51.678;6.610;2022-08-14T15:13:24;32.20;99.90
16249;DHT22;8232;51.678;6.610;2022-08-14T15:15:52;31.60;99.90
16249;DHT22;8232;51.678;6.610;2022-08-14T15:18:19;31.90;99.90
16249;DHT22;8232;51.678;6.610;2022-08-14T15:20:47;32.10;99.90
16249;DHT22;8232;51.678;6.610;2022-08-14T15:23:14;32.50;99.90
16249;DHT22;8232;51.678;6.610;2022-08-14T15:25:41;31.90;99.90
16249;DHT22;8232;51.678;6.610;2022-08-14T15:28:11;31.50;99.90
16249;DHT22;8232;51.678;6.610;2022-08-14T15:30:38;31.40;99.90
16249;DHT22;8232;51.678;6.610;2022-08-14T15:33:07;31.50;99.90
16249;DHT22;8232;51.678;6.610;2022-08-14T15:35:34;31.70;99.90
16249;DHT22;8232;51.678;6.610;2022-08-14T15:38:02;31.70;99.90
16249;DHT22;8232;51.678;6.610;2022-08-14T15:40:34;31.60;99.90
16249;DHT22;8232;51.678;6.610;2022-08-14T15:43:02;31.60;99.90
16249;DHT22;8232;51.678;6.610;2022-08-14T15:45:29;31.70;99.90
16249;DHT22;8232;51.678;6.610;2022-08-14T15:47:57;31.60;99.90
16249;DHT22;8232;51.678;6.610;2022-08-14T15:50:25;31.70;99.90
16249;DHT22;8232;51.678;6.610;2022-08-14T15:52:53;31.30;99.90
16249;DHT22;8232;51.678;6.610;2022-08-14T15:55:20;31.50;99.90
16249;DHT22;8232;51.678;6.610;2022-08-14T15:57:48;31.40;99.90